sensor_id;sensor_type;location;lat;lon;timestamp;pressure;altitude;pressure_sealevel;temperature
11792;BMP180;5953;52.372;9.918;2023-03-14T00:00:59;98312.00;;;16.60
11792;BMP180;5953;52.372;9.918;2023-03-14T00:03:28;98315.00;;;16.70
11792;BMP180;5953;52.372;9.918;2023-03-14T00:06:01;98297.00;;;16.70
11792;BMP180;5953;52.372;9.918;2023-03-14T00:08:29;98278.00;;;16.50
11792;BMP180;5953;52.372;9.918;2023-03-14T00:10:57;98266.00;;;16.70
11792;BMP180;5953;52.372;9.918;2023-03-14T00:13:25;98261.00;;;16.50
11792;BMP180;5953;52.372;9.918;2023-03-14T00:15:53;98240.00;;;16.70
11792;BMP180;5953;52.372;9.918;2023-03-14T00:18:21;98224.00;;;16.70
11792;BMP180;5953;52.372;9.918;2023-03-14T00:20:49;98228.00;;;16.60
11792;BMP180;5953;52.372;9.918;2023-03-14T00:23:21;98231.00;;;16.60
11792;BMP180;5953;52.372;9.918;2023-03-14T00:25:49;98251.00;;;16.60
11792;BMP180;5953;52.372;9.918;2023-03-14T00:28:16;98233.00;;;16.60
11792;BMP180;5953;52.372;9.918;2023-03-14T00:30:44;98237.00;;;16.40
11792;BMP180;5953;52.372;9.918;2023-03-14T00:33:12;98245.00;;;16.10
11792;BMP180;5953;52.372;9.918;2023-03-14T00:35:40;98261.00;;;16.40
11792;BMP180;5953;52.372;9.918;2023-03-14T00:38:08;98249.00;;;16.50
11792;BMP180;5953;52.372;9.918;2023-03-14T00:40:39;98264.00;;;16.40
11792;BMP180;5953;52.372;9.918;2023-03-14T00:43:07;98255.00;;;16.40
11792;BMP180;5953;52.372;9.918;2023-03-14T00:45:35;98269.00;;;16.50
11792;BMP180;5953;52.372;9.918;2023-03-14T00:48:03;98273.00;;;16.50
11792;BMP180;5953;52.372;9.918;2023-03-14T00:50:31;98281.00;;;16.30
11792;BMP180;5953;52.372;9.918;2023-03-14T00:52:58;98295.00;;;16.30
11792;BMP180;5953;52.372;9.918;2023-03-14T00:55:26;98300.00;;;16.20
11792;BMP180;5953;52.372;9.918;2023-03-14T00:57:55;98299.00;;;16.20
11792;BMP180;5953;52.372;9.918;2023-03-14T01:00:23;98278.00;;;16.30
11792;BMP180;5953;52.372;9.918;2023-03-14T01:02:51;98281.00;;;16.30
11792;BMP180;5953;52.372;9.918;2023-03-14T01:05:19;98263.00;;;16.50
11792;BMP180;5953;52.372;9.918;2023-03-14T01:07:46;98258.00;;;16.50
11792;BMP180;5953;52.372;9.918;2023-03-14T01:10:15;98247.00;;;16.60
11792;BMP180;5953;52.372;9.918;2023-03-14T01:12:42;98234.00;;;16.70
11792;BMP180;5953;52.372;9.918;2023-03-14T01:15:12;98230.00;;;16.70
11792;BMP180;5953;52.372;9.918;2023-03-14T01:17:39;98229.00;;;16.70
11792;BMP180;5953;52.372;9.918;2023-03-14T01:20:11;98229.00;;;16.50
11792;BMP180;5953;52.372;9.918;2023-03-14T01:22:40;98231.00;;;16.60
11792;BMP180;5953;52.372;9.918;2023-03-14T01:25:09;98239.00;;;16.60
11792;BMP180;5953;52.372;9.918;2023-03-14T01:27:38;98218.00;;;16.50
11792;BMP180;5953;52.372;9.918;2023-03-14T01:30:07;98228.00;;;16.30
11792;BMP180;5953;52.372;9.918;2023-03-14T01:32:37;98220.00;;;16.40
11792;BMP180;5953;52.372;9.918;2023-03-14T01:35:05;98208.00;;;16.20
11792;BMP180;5953;52.372;9.918;2023-03-14T01:37:33;98205.00;;;16.40
11792;BMP180;5953;52.372;9.918;2023-03-14T01:40:01;98201.00;;;16.10
11792;BMP180;5953;52.372;9.918;2023-03-14T01:42:30;98187.00;;;16.10
11792;BMP180;5953;52.372;9.918;2023-03-14T01:45:00;98207.00;;;15.90
11792;BMP180;5953;52.372;9.918;2023-03-14T01:47:28;98220.00;;;15.90
11792;BMP180;5953;52.372;9.918;2023-03-14T01:49:59;98224.00;;;15.30
11792;BMP180;5953;52.372;9.918;2023-03-14T01:52:31;98229.00;;;16.20
11792;BMP180;5953;52.372;9.918;2023-03-14T01:55:04;98218.00;;;16.00
11792;BMP180;5953;52.372;9.918;2023-03-14T01:57:36;98189.00;;;16.00
11792;BMP180;5953;52.372;9.918;2023-03-14T02:00:07;98171.00;;;16.20
11792;BMP180;5953;52.372;9.918;2023-03-14T02:02:39;98195.00;;;16.00
11792;BMP180;5953;52.372;9.918;2023-03-14T02:05:10;98189.00;;;15.80
11792;BMP180;5953;52.372;9.918;2023-03-14T02:07:43;98183.00;;;16.00
11792;BMP180;5953;52.372;9.918;2023-03-14T02:10:14;98189.00;;;15.70
11792;BMP180;5953;52.372;9.918;2023-03-14T02:12:42;98187.00;;;15.90
11792;BMP180;5953;52.372;9.918;2023-03-14T02:15:11;98183.00;;;15.90
11792;BMP180;5953;52.372;9.918;2023-03-14T02:17:40;98187.00;;;16.00
11792;BMP180;5953;52.372;9.918;2023-03-14T02:20:28;98193.00;;;15.90
11792;BMP180;5953;52.372;9.918;2023-03-14T02:22:58;98195.00;;;16.10
11792;BMP180;5953;52.372;9.918;2023-03-14T02:25:34;98211.00;;;15.90
11792;BMP180;5953;52.372;9.918;2023-03-14T02:28:05;98209.00;;;16.00
11792;BMP180;5953;52.372;9.918;2023-03-14T02:30:33;98221.00;;;15.60
11792;BMP180;5953;52.372;9.918;2023-03-14T02:33:03;98207.00;;;15.70
11792;BMP180;5953;52.372;9.918;2023-03-14T02:35:35;98210.00;;;16.00
11792;BMP180;5953;52.372;9.918;2023-03-14T02:38:09;98189.00;;;15.70
11792;BMP180;5953;52.372;9.918;2023-03-14T02:40:38;98199.00;;;15.90
11792;BMP180;5953;52.372;9.918;2023-03-14T02:43:07;98200.00;;;16.10
11792;BMP180;5953;52.372;9.918;2023-03-14T02:45:41;98186.00;;;15.70
11792;BMP180;5953;52.372;9.918;2023-03-14T02:48:13;98162.00;;;16.00
11792;BMP180;5953;52.372;9.918;2023-03-14T02:50:43;98152.00;;;15.90
11792;BMP180;5953;52.372;9.918;2023-03-14T02:53:16;98161.00;;;15.80
11792;BMP180;5953;52.372;9.918;2023-03-14T02:55:45;98165.00;;;16.10
11792;BMP180;5953;52.372;9.918;2023-03-14T02:58:15;98161.00;;;16.00
11792;BMP180;5953;52.372;9.918;2023-03-14T03:00:43;98155.00;;;15.80
11792;BMP180;5953;52.372;9.918;2023-03-14T03:03:11;98145.00;;;15.70
11792;BMP180;5953;52.372;9.918;2023-03-14T03:05:39;98147.00;;;15.40
11792;BMP180;5953;52.372;9.918;2023-03-14T03:08:08;98149.00;;;15.70
11792;BMP180;5953;52.372;9.918;2023-03-14T03:10:36;98142.00;;;15.20
11792;BMP180;5953;52.372;9.918;2023-03-14T03:13:03;98133.00;;;15.30
11792;BMP180;5953;52.372;9.918;2023-03-14T03:15:32;98131.00;;;15.40
11792;BMP180;5953;52.372;9.918;2023-03-14T03:18:00;98122.00;;;15.80
11792;BMP180;5953;52.372;9.918;2023-03-14T03:20:28;98132.00;;;15.50
11792;BMP180;5953;52.372;9.918;2023-03-14T03:22:56;98142.00;;;15.60
11792;BMP180;5953;52.372;9.918;2023-03-14T03:25:23;98129.00;;;15.50
11792;BMP180;5953;52.372;9.918;2023-03-14T03:27:51;98135.00;;;15.40
11792;BMP180;5953;52.372;9.918;2023-03-14T03:30:20;98131.00;;;15.60
11792;BMP180;5953;52.372;9.918;2023-03-14T03:32:49;98128.00;;;15.70
11792;BMP180;5953;52.372;9.918;2023-03-14T03:35:17;98122.00;;;15.70
11792;BMP180;5953;52.372;9.918;2023-03-14T03:37:45;98113.00;;;15.30
11792;BMP180;5953;52.372;9.918;2023-03-14T03:40:13;98107.00;;;15.00
11792;BMP180;5953;52.372;9.918;2023-03-14T03:42:40;98106.00;;;15.30
11792;BMP180;5953;52.372;9.918;2023-03-14T03:45:09;98103.00;;;15.40
11792;BMP180;5953;52.372;9.918;2023-03-14T03:47:37;98120.00;;;15.30
11792;BMP180;5953;52.372;9.918;2023-03-14T03:50:07;98119.00;;;15.60
11792;BMP180;5953;52.372;9.918;2023-03-14T03:52:35;98119.00;;;14.60
11792;BMP180;5953;52.372;9.918;2023-03-14T03:55:03;98126.00;;;15.20
11792;BMP180;5953;52.372;9.918;2023-03-14T03:57:31;98130.00;;;15.60
11792;BMP180;5953;52.372;9.918;2023-03-14T03:59:59;98142.00;;;15.10
11792;BMP180;5953;52.372;9.918;2023-03-14T04:02:27;98146.00;;;14.70
11792;BMP180;5953;52.372;9.918;2023-03-14T04:04:55;98161.00;;;14.20
11792;BMP180;5953;52.372;9.918;2023-03-14T04:07:24;98181.00;;;14.40
11792;BMP180;5953;52.372;9.918;2023-03-14T04:09:51;98170.00;;;14.40
11792;BMP180;5953;52.372;9.918;2023-03-14T04:12:19;98175.00;;;14.40
11792;BMP180;5953;52.372;9.918;2023-03-14T04:14:47;98161.00;;;14.30
11792;BMP180;5953;52.372;9.918;2023-03-14T04:17:15;98144.00;;;14.30
11792;BMP180;5953;52.372;9.918;2023-03-14T04:19:43;98134.00;;;14.00
11792;BMP180;5953;52.372;9.918;2023-03-14T04:22:10;98139.00;;;14.00
11792;BMP180;5953;52.372;9.918;2023-03-14T04:24:39;98146.00;;;14.00
11792;BMP180;5953;52.372;9.918;2023-03-14T04:27:07;98128.00;;;14.00
11792;BMP180;5953;52.372;9.918;2023-03-14T04:29:35;98133.00;;;13.50
11792;BMP180;5953;52.372;9.918;2023-03-14T04:32:03;98130.00;;;14.00
11792;BMP180;5953;52.372;9.918;2023-03-14T04:34:30;98127.00;;;13.90
11792;BMP180;5953;52.372;9.918;2023-03-14T04:36:58;98123.00;;;14.00
11792;BMP180;5953;52.372;9.918;2023-03-14T04:39:26;98129.00;;;13.90
11792;BMP180;5953;52.372;9.918;2023-03-14T04:41:55;98117.00;;;13.70
11792;BMP180;5953;52.372;9.918;2023-03-14T04:44:23;98109.00;;;13.50
11792;BMP180;5953;52.372;9.918;2023-03-14T04:46:51;98104.00;;;13.70
11792;BMP180;5953;52.372;9.918;2023-03-14T04:49:19;98093.00;;;13.70
11792;BMP180;5953;52.372;9.918;2023-03-14T04:51:47;98112.00;;;13.50
11792;BMP180;5953;52.372;9.918;2023-03-14T04:54:17;98103.00;;;13.20
11792;BMP180;5953;52.372;9.918;2023-03-14T04:56:44;98110.00;;;13.50
11792;BMP180;5953;52.372;9.918;2023-03-14T04:59:14;98103.00;;;13.40
11792;BMP180;5953;52.372;9.918;2023-03-14T05:01:41;98089.00;;;13.40
11792;BMP180;5953;52.372;9.918;2023-03-14T05:04:09;98098.00;;;13.60
11792;BMP180;5953;52.372;9.918;2023-03-14T05:06:37;98091.00;;;13.60
11792;BMP180;5953;52.372;9.918;2023-03-14T05:09:06;98096.00;;;13.50
11792;BMP180;5953;52.372;9.918;2023-03-14T05:11:33;98089.00;;;13.30
11792;BMP180;5953;52.372;9.918;2023-03-14T05:14:01;98083.00;;;13.10
11792;BMP180;5953;52.372;9.918;2023-03-14T05:16:30;98072.00;;;13.10
11792;BMP180;5953;52.372;9.918;2023-03-14T05:18:58;98082.00;;;13.20
11792;BMP180;5953;52.372;9.918;2023-03-14T05:21:28;98065.00;;;13.20
11792;BMP180;5953;52.372;9.918;2023-03-14T05:23:56;98065.00;;;13.10
11792;BMP180;5953;52.372;9.918;2023-03-14T05:26:23;98072.00;;;13.20
11792;BMP180;5953;52.372;9.918;2023-03-14T05:28:51;98076.00;;;12.90
11792;BMP180;5953;52.372;9.918;2023-03-14T05:31:19;98078.00;;;13.30
11792;BMP180;5953;52.372;9.918;2023-03-14T05:33:48;98072.00;;;13.30
11792;BMP180;5953;52.372;9.918;2023-03-14T05:36:16;98074.00;;;13.30
11792;BMP180;5953;52.372;9.918;2023-03-14T05:38:44;98093.00;;;13.30
11792;BMP180;5953;52.372;9.918;2023-03-14T05:41:11;98082.00;;;13.00
11792;BMP180;5953;52.372;9.918;2023-03-14T05:43:39;98091.00;;;12.90
11792;BMP180;5953;52.372;9.918;2023-03-14T05:46:07;98080.00;;;13.30
11792;BMP180;5953;52.372;9.918;2023-03-14T05:48:35;98094.00;;;13.50
11792;BMP180;5953;52.372;9.918;2023-03-14T05:51:05;98071.00;;;13.40
11792;BMP180;5953;52.372;9.918;2023-03-14T05:53:32;98071.00;;;13.30
11792;BMP180;5953;52.372;9.918;2023-03-14T05:56:00;98072.00;;;13.40
11792;BMP180;5953;52.372;9.918;2023-03-14T05:58:28;98085.00;;;12.80
11792;BMP180;5953;52.372;9.918;2023-03-14T06:00:56;98092.00;;;13.30
11792;BMP180;5953;52.372;9.918;2023-03-14T06:03:24;98092.00;;;13.00
11792;BMP180;5953;52.372;9.918;2023-03-14T06:05:51;98079.00;;;12.50
11792;BMP180;5953;52.372;9.918;2023-03-14T06:08:20;98087.00;;;12.80
11792;BMP180;5953;52.372;9.918;2023-03-14T06:10:48;98092.00;;;13.40
11792;BMP180;5953;52.372;9.918;2023-03-14T06:13:16;98096.00;;;13.60
11792;BMP180;5953;52.372;9.918;2023-03-14T06:15:44;98110.00;;;13.00
11792;BMP180;5953;52.372;9.918;2023-03-14T06:18:12;98100.00;;;13.40
11792;BMP180;5953;52.372;9.918;2023-03-14T06:20:40;98106.00;;;13.40
11792;BMP180;5953;52.372;9.918;2023-03-14T06:23:08;98103.00;;;13.80
11792;BMP180;5953;52.372;9.918;2023-03-14T06:25:38;98102.00;;;13.60
11792;BMP180;5953;52.372;9.918;2023-03-14T06:28:05;98093.00;;;13.70
11792;BMP180;5953;52.372;9.918;2023-03-14T06:30:33;98091.00;;;13.80
11792;BMP180;5953;52.372;9.918;2023-03-14T06:33:02;98096.00;;;13.70
11792;BMP180;5953;52.372;9.918;2023-03-14T06:35:30;98108.00;;;13.80
11792;BMP180;5953;52.372;9.918;2023-03-14T06:37:58;98094.00;;;14.10
11792;BMP180;5953;52.372;9.918;2023-03-14T06:40:26;98108.00;;;14.00
11792;BMP180;5953;52.372;9.918;2023-03-14T06:42:55;98129.00;;;13.50
11792;BMP180;5953;52.372;9.918;2023-03-14T06:45:23;98129.00;;;13.50
11792;BMP180;5953;52.372;9.918;2023-03-14T06:47:50;98121.00;;;13.50
11792;BMP180;5953;52.372;9.918;2023-03-14T06:50:18;98132.00;;;14.10
11792;BMP180;5953;52.372;9.918;2023-03-14T06:52:48;98127.00;;;13.90
11792;BMP180;5953;52.372;9.918;2023-03-14T06:55:16;98120.00;;;14.10
11792;BMP180;5953;52.372;9.918;2023-03-14T06:57:47;98122.00;;;14.10
11792;BMP180;5953;52.372;9.918;2023-03-14T07:00:17;98123.00;;;13.90
11792;BMP180;5953;52.372;9.918;2023-03-14T07:02:45;98127.00;;;14.00
11792;BMP180;5953;52.372;9.918;2023-03-14T07:05:13;98120.00;;;13.70
11792;BMP180;5953;52.372;9.918;2023-03-14T07:07:41;98133.00;;;14.30
11792;BMP180;5953;52.372;9.918;2023-03-14T07:10:10;98133.00;;;14.30
11792;BMP180;5953;52.372;9.918;2023-03-14T07:12:38;98126.00;;;13.90
11792;BMP180;5953;52.372;9.918;2023-03-14T07:15:07;98118.00;;;14.40
11792;BMP180;5953;52.372;9.918;2023-03-14T07:17:46;98137.00;;;14.20
11792;BMP180;5953;52.372;9.918;2023-03-14T07:20:15;98133.00;;;14.00
11792;BMP180;5953;52.372;9.918;2023-03-14T07:22:42;98138.00;;;14.00
11792;BMP180;5953;52.372;9.918;2023-03-14T07:25:10;98116.00;;;14.00
11792;BMP180;5953;52.372;9.918;2023-03-14T07:27:38;98127.00;;;13.70
11792;BMP180;5953;52.372;9.918;2023-03-14T07:30:07;98122.00;;;13.70
11792;BMP180;5953;52.372;9.918;2023-03-14T07:32:35;98126.00;;;14.10
11792;BMP180;5953;52.372;9.918;2023-03-14T07:35:05;98120.00;;;13.80
11792;BMP180;5953;52.372;9.918;2023-03-14T07:37:33;98123.00;;;14.20
11792;BMP180;5953;52.372;9.918;2023-03-14T07:40:02;98121.00;;;14.40
11792;BMP180;5953;52.372;9.918;2023-03-14T07:42:33;98128.00;;;14.30
11792;BMP180;5953;52.372;9.918;2023-03-14T07:45:01;98134.00;;;14.00
11792;BMP180;5953;52.372;9.918;2023-03-14T07:47:29;98141.00;;;13.90
11792;BMP180;5953;52.372;9.918;2023-03-14T07:49:57;98134.00;;;13.80
11792;BMP180;5953;52.372;9.918;2023-03-14T07:52:26;98139.00;;;13.90
11792;BMP180;5953;52.372;9.918;2023-03-14T07:54:54;98156.00;;;13.70
11792;BMP180;5953;52.372;9.918;2023-03-14T07:57:22;98150.00;;;13.60
11792;BMP180;5953;52.372;9.918;2023-03-14T07:59:50;98162.00;;;13.90
11792;BMP180;5953;52.372;9.918;2023-03-14T08:02:18;98166.00;;;13.70
11792;BMP180;5953;52.372;9.918;2023-03-14T08:04:49;98166.00;;;13.60
11792;BMP180;5953;52.372;9.918;2023-03-14T08:07:17;98160.00;;;13.60
11792;BMP180;5953;52.372;9.918;2023-03-14T08:09:46;98154.00;;;13.60
11792;BMP180;5953;52.372;9.918;2023-03-14T08:12:14;98122.00;;;13.40
11792;BMP180;5953;52.372;9.918;2023-03-14T08:14:42;98144.00;;;13.20
11792;BMP180;5953;52.372;9.918;2023-03-14T08:17:10;98141.00;;;13.40
11792;BMP180;5953;52.372;9.918;2023-03-14T08:19:38;98165.00;;;13.40
11792;BMP180;5953;52.372;9.918;2023-03-14T08:22:05;98142.00;;;13.20
11792;BMP180;5953;52.372;9.918;2023-03-14T08:24:34;98144.00;;;13.30
11792;BMP180;5953;52.372;9.918;2023-03-14T08:27:03;98130.00;;;13.50
11792;BMP180;5953;52.372;9.918;2023-03-14T08:29:34;98139.00;;;13.70
11792;BMP180;5953;52.372;9.918;2023-03-14T08:32:02;98139.00;;;13.50
11792;BMP180;5953;52.372;9.918;2023-03-14T08:34:30;98129.00;;;13.50
11792;BMP180;5953;52.372;9.918;2023-03-14T08:36:57;98146.00;;;13.80
11792;BMP180;5953;52.372;9.918;2023-03-14T08:39:26;98146.00;;;13.70
11792;BMP180;5953;52.372;9.918;2023-03-14T08:41:54;98142.00;;;13.80
11792;BMP180;5953;52.372;9.918;2023-03-14T08:44:23;98146.00;;;13.60
11792;BMP180;5953;52.372;9.918;2023-03-14T08:46:51;98128.00;;;14.00
11792;BMP180;5953;52.372;9.918;2023-03-14T08:49:19;98142.00;;;13.90
11792;BMP180;5953;52.372;9.918;2023-03-14T08:51:46;98141.00;;;13.60
11792;BMP180;5953;52.372;9.918;2023-03-14T08:54:14;98137.00;;;14.10
11792;BMP180;5953;52.372;9.918;2023-03-14T08:56:42;98138.00;;;14.20
11792;BMP180;5953;52.372;9.918;2023-03-14T08:59:10;98147.00;;;14.40
11792;BMP180;5953;52.372;9.918;2023-03-14T09:01:39;98149.00;;;14.40
11792;BMP180;5953;52.372;9.918;2023-03-14T09:04:07;98144.00;;;14.50
11792;BMP180;5953;52.372;9.918;2023-03-14T09:06:36;98156.00;;;13.80
11792;BMP180;5953;52.372;9.918;2023-03-14T09:09:04;98148.00;;;14.30
11792;BMP180;5953;52.372;9.918;2023-03-14T09:11:32;98150.00;;;14.50
11792;BMP180;5953;52.372;9.918;2023-03-14T09:14:00;98155.00;;;14.30
11792;BMP180;5953;52.372;9.918;2023-03-14T09:16:27;98139.00;;;13.90
11792;BMP180;5953;52.372;9.918;2023-03-14T09:18:56;98142.00;;;14.40
11792;BMP180;5953;52.372;9.918;2023-03-14T09:21:26;98136.00;;;14.30
11792;BMP180;5953;52.372;9.918;2023-03-14T09:23:54;98138.00;;;13.90
11792;BMP180;5953;52.372;9.918;2023-03-14T09:26:22;98152.00;;;14.40
11792;BMP180;5953;52.372;9.918;2023-03-14T09:28:50;98155.00;;;14.10
11792;BMP180;5953;52.372;9.918;2023-03-14T09:31:18;98118.00;;;14.40
11792;BMP180;5953;52.372;9.918;2023-03-14T09:33:47;98144.00;;;14.40
11792;BMP180;5953;52.372;9.918;2023-03-14T09:36:16;98150.00;;;14.60
11792;BMP180;5953;52.372;9.918;2023-03-14T09:38:43;98144.00;;;14.70
11792;BMP180;5953;52.372;9.918;2023-03-14T09:41:15;98140.00;;;14.70
11792;BMP180;5953;52.372;9.918;2023-03-14T09:43:45;98141.00;;;14.80
11792;BMP180;5953;52.372;9.918;2023-03-14T09:46:14;98145.00;;;14.80
11792;BMP180;5953;52.372;9.918;2023-03-14T09:48:43;98146.00;;;14.90
11792;BMP180;5953;52.372;9.918;2023-03-14T09:51:13;98136.00;;;14.80
11792;BMP180;5953;52.372;9.918;2023-03-14T09:53:44;98147.00;;;14.80
11792;BMP180;5953;52.372;9.918;2023-03-14T09:56:16;98153.00;;;14.90
11792;BMP180;5953;52.372;9.918;2023-03-14T09:58:48;98150.00;;;14.80
11792;BMP180;5953;52.372;9.918;2023-03-14T10:01:22;98157.00;;;15.10
11792;BMP180;5953;52.372;9.918;2023-03-14T10:03:54;98153.00;;;15.00
11792;BMP180;5953;52.372;9.918;2023-03-14T10:06:26;98163.00;;;14.90
11792;BMP180;5953;52.372;9.918;2023-03-14T10:08:56;98158.00;;;15.20
11792;BMP180;5953;52.372;9.918;2023-03-14T10:11:24;98154.00;;;15.20
11792;BMP180;5953;52.372;9.918;2023-03-14T10:14:05;98145.00;;;15.30
11792;BMP180;5953;52.372;9.918;2023-03-14T10:16:35;98153.00;;;15.30
11792;BMP180;5953;52.372;9.918;2023-03-14T10:19:06;98149.00;;;15.50
11792;BMP180;5953;52.372;9.918;2023-03-14T10:21:39;98132.00;;;15.60
11792;BMP180;5953;52.372;9.918;2023-03-14T10:24:16;98139.00;;;15.70
11792;BMP180;5953;52.372;9.918;2023-03-14T10:26:48;98133.00;;;15.90
11792;BMP180;5953;52.372;9.918;2023-03-14T10:29:16;98153.00;;;15.70
11792;BMP180;5953;52.372;9.918;2023-03-14T10:31:50;98135.00;;;15.70
11792;BMP180;5953;52.372;9.918;2023-03-14T10:34:25;98118.00;;;15.80
11792;BMP180;5953;52.372;9.918;2023-03-14T10:36:56;98148.00;;;15.70
11792;BMP180;5953;52.372;9.918;2023-03-14T10:39:29;98146.00;;;15.30
11792;BMP180;5953;52.372;9.918;2023-03-14T10:42:10;98153.00;;;15.20
11792;BMP180;5953;52.372;9.918;2023-03-14T10:44:41;98165.00;;;15.30
11792;BMP180;5953;52.372;9.918;2023-03-14T10:47:17;98135.00;;;15.40
11792;BMP180;5953;52.372;9.918;2023-03-14T10:49:45;98149.00;;;15.50
11792;BMP180;5953;52.372;9.918;2023-03-14T10:52:18;98146.00;;;15.50
11792;BMP180;5953;52.372;9.918;2023-03-14T10:55:09;98136.00;;;15.30
11792;BMP180;5953;52.372;9.918;2023-03-14T10:57:38;98150.00;;;15.50
11792;BMP180;5953;52.372;9.918;2023-03-14T11:00:15;98145.00;;;15.30
11792;BMP180;5953;52.372;9.918;2023-03-14T11:03:03;98129.00;;;15.10
11792;BMP180;5953;52.372;9.918;2023-03-14T11:05:40;98137.00;;;15.40
11792;BMP180;5953;52.372;9.918;2023-03-14T11:08:16;98139.00;;;15.50
11792;BMP180;5953;52.372;9.918;2023-03-14T11:10:50;98147.00;;;15.60
11792;BMP180;5953;52.372;9.918;2023-03-14T11:13:23;98148.00;;;15.60
11792;BMP180;5953;52.372;9.918;2023-03-14T11:16:04;98139.00;;;15.50
11792;BMP180;5953;52.372;9.918;2023-03-14T11:18:58;98137.00;;;15.40
11792;BMP180;5953;52.372;9.918;2023-03-14T11:21:32;98141.00;;;15.40
11792;BMP180;5953;52.372;9.918;2023-03-14T11:24:32;98144.00;;;15.20
11792;BMP180;5953;52.372;9.918;2023-03-14T11:27:09;98149.00;;;15.60
11792;BMP180;5953;52.372;9.918;2023-03-14T11:29:49;98145.00;;;15.80
11792;BMP180;5953;52.372;9.918;2023-03-14T11:32:31;98156.00;;;15.90
11792;BMP180;5953;52.372;9.918;2023-03-14T11:35:04;98223.00;;;16.10
11792;BMP180;5953;52.372;9.918;2023-03-14T11:37:40;98264.00;;;14.80
11792;BMP180;5953;52.372;9.918;2023-03-14T11:40:14;98269.00;;;14.50
11792;BMP180;5953;52.372;9.918;2023-03-14T11:42:49;98298.00;;;14.40
11792;BMP180;5953;52.372;9.918;2023-03-14T11:45:26;98275.00;;;13.80
11792;BMP180;5953;52.372;9.918;2023-03-14T11:48:10;98315.00;;;13.10
11792;BMP180;5953;52.372;9.918;2023-03-14T11:50:43;98301.00;;;13.00
11792;BMP180;5953;52.372;9.918;2023-03-14T11:53:14;98315.00;;;12.90
11792;BMP180;5953;52.372;9.918;2023-03-14T11:55:45;98335.00;;;12.90
11792;BMP180;5953;52.372;9.918;2023-03-14T11:58:19;98341.00;;;13.00
11792;BMP180;5953;52.372;9.918;2023-03-14T12:00:49;98354.00;;;12.90
11792;BMP180;5953;52.372;9.918;2023-03-14T12:03:26;98359.00;;;13.00
11792;BMP180;5953;52.372;9.918;2023-03-14T12:06:05;98372.00;;;12.60
11792;BMP180;5953;52.372;9.918;2023-03-14T12:08:47;98393.00;;;12.50
11792;BMP180;5953;52.372;9.918;2023-03-14T12:11:19;98400.00;;;12.50
11792;BMP180;5953;52.372;9.918;2023-03-14T12:13:51;98428.00;;;11.60
11792;BMP180;5953;52.372;9.918;2023-03-14T12:16:40;98424.00;;;11.70
11792;BMP180;5953;52.372;9.918;2023-03-14T12:19:35;98448.00;;;11.30
11792;BMP180;5953;52.372;9.918;2023-03-14T12:22:27;98463.00;;;11.10
11792;BMP180;5953;52.372;9.918;2023-03-14T12:25:02;98469.00;;;10.80
11792;BMP180;5953;52.372;9.918;2023-03-14T12:28:03;98487.00;;;10.60
11792;BMP180;5953;52.372;9.918;2023-03-14T12:30:35;98505.00;;;10.50
11792;BMP180;5953;52.372;9.918;2023-03-14T12:33:21;98540.00;;;10.10
11792;BMP180;5953;52.372;9.918;2023-03-14T12:36:01;98552.00;;;10.50
11792;BMP180;5953;52.372;9.918;2023-03-14T12:38:43;98573.00;;;10.30
11792;BMP180;5953;52.372;9.918;2023-03-14T12:41:16;98579.00;;;10.30
11792;BMP180;5953;52.372;9.918;2023-03-14T12:43:44;98596.00;;;9.80
11792;BMP180;5953;52.372;9.918;2023-03-14T12:46:31;98609.00;;;10.00
11792;BMP180;5953;52.372;9.918;2023-03-14T12:49:04;98616.00;;;10.10
11792;BMP180;5953;52.372;9.918;2023-03-14T12:51:35;98631.00;;;9.90
11792;BMP180;5953;52.372;9.918;2023-03-14T12:57:21;98649.00;;;10.00
11792;BMP180;5953;52.372;9.918;2023-03-14T12:59:56;98656.00;;;10.10
11792;BMP180;5953;52.372;9.918;2023-03-14T13:02:27;98640.00;;;10.10
11792;BMP180;5953;52.372;9.918;2023-03-14T13:05:03;98660.00;;;9.60
11792;BMP180;5953;52.372;9.918;2023-03-14T13:07:34;98671.00;;;9.50
11792;BMP180;5953;52.372;9.918;2023-03-14T13:10:16;98652.00;;;9.90
11792;BMP180;5953;52.372;9.918;2023-03-14T13:12:50;98702.00;;;10.00
11792;BMP180;5953;52.372;9.918;2023-03-14T13:15:26;98713.00;;;10.10
11792;BMP180;5953;52.372;9.918;2023-03-14T13:18:01;98746.00;;;10.10
11792;BMP180;5953;52.372;9.918;2023-03-14T13:20:32;98749.00;;;9.80
11792;BMP180;5953;52.372;9.918;2023-03-14T13:23:02;98722.00;;;10.10
11792;BMP180;5953;52.372;9.918;2023-03-14T13:25:33;98710.00;;;10.00
11792;BMP180;5953;52.372;9.918;2023-03-14T13:28:01;98745.00;;;10.40
11792;BMP180;5953;52.372;9.918;2023-03-14T13:30:38;98771.00;;;10.00
11792;BMP180;5953;52.372;9.918;2023-03-14T13:33:13;98740.00;;;10.10
11792;BMP180;5953;52.372;9.918;2023-03-14T13:35:45;98786.00;;;10.00
11792;BMP180;5953;52.372;9.918;2023-03-14T13:38:17;98800.00;;;10.10
11792;BMP180;5953;52.372;9.918;2023-03-14T13:40:46;98802.00;;;9.90
11792;BMP180;5953;52.372;9.918;2023-03-14T13:43:21;98791.00;;;9.70
11792;BMP180;5953;52.372;9.918;2023-03-14T13:45:53;98799.00;;;10.00
11792;BMP180;5953;52.372;9.918;2023-03-14T13:48:27;98820.00;;;10.40
11792;BMP180;5953;52.372;9.918;2023-03-14T13:50:59;98817.00;;;10.50
11792;BMP180;5953;52.372;9.918;2023-03-14T13:53:28;98827.00;;;10.40
11792;BMP180;5953;52.372;9.918;2023-03-14T13:55:56;98838.00;;;10.70
11792;BMP180;5953;52.372;9.918;2023-03-14T13:58:28;98832.00;;;10.40
11792;BMP180;5953;52.372;9.918;2023-03-14T14:00:59;98826.00;;;10.70
11792;BMP180;5953;52.372;9.918;2023-03-14T14:03:31;98844.00;;;10.40
11792;BMP180;5953;52.372;9.918;2023-03-14T14:05:59;98824.00;;;10.60
11792;BMP180;5953;52.372;9.918;2023-03-14T14:08:27;98854.00;;;10.60
11792;BMP180;5953;52.372;9.918;2023-03-14T14:10:59;98850.00;;;10.70
11792;BMP180;5953;52.372;9.918;2023-03-14T14:13:31;98856.00;;;10.50
11792;BMP180;5953;52.372;9.918;2023-03-14T14:16:02;98857.00;;;10.40
11792;BMP180;5953;52.372;9.918;2023-03-14T14:18:33;98897.00;;;10.40
11792;BMP180;5953;52.372;9.918;2023-03-14T14:21:02;98896.00;;;9.80
11792;BMP180;5953;52.372;9.918;2023-03-14T14:23:30;98906.00;;;10.20
11792;BMP180;5953;52.372;9.918;2023-03-14T14:25:59;98928.00;;;10.40
11792;BMP180;5953;52.372;9.918;2023-03-14T14:28:29;98939.00;;;10.40
11792;BMP180;5953;52.372;9.918;2023-03-14T14:31:15;98962.00;;;10.50
11792;BMP180;5953;52.372;9.918;2023-03-14T14:33:52;98967.00;;;10.40
11792;BMP180;5953;52.372;9.918;2023-03-14T14:36:22;98959.00;;;10.40
11792;BMP180;5953;52.372;9.918;2023-03-14T14:38:52;98968.00;;;10.50
11792;BMP180;5953;52.372;9.918;2023-03-14T14:41:20;98959.00;;;10.50
11792;BMP180;5953;52.372;9.918;2023-03-14T14:43:49;98980.00;;;10.30